createdAt,value
2024-01-06T00:02:10.651Z,99984.27
2024-01-06T00:04:40.874Z,99989.19
2024-01-06T00:07:11.525Z,99994.62
2024-01-06T00:09:42.280Z,100000.99
2024-01-06T00:12:12.781Z,100006.08
2024-01-06T00:14:42.755Z,100011.02
2024-01-06T00:17:12.923Z,100014.75
2024-01-06T00:19:43.800Z,100016.96
2024-01-06T00:22:14.526Z,100022.21
2024-01-06T00:24:45.384Z,100026.58
2024-01-06T00:27:16.234Z,100030.92
2024-01-06T00:29:46.681Z,100035.33
2024-01-06T00:32:17.207Z,100038.18
2024-01-06T00:34:48.122Z,100040.94
2024-01-06T00:37:18.813Z,100038.74
2024-01-06T00:39:49.741Z,100045.18
2024-01-06T00:42:20.588Z,100048.36
2024-01-06T00:44:51.301Z,100048.73
2024-01-06T00:47:22.006Z,100053.02
2024-01-06T00:49:52.444Z,100058.53
2024-01-06T00:52:22.969Z,100061.24
2024-01-06T00:54:53.536Z,100064.76
2024-01-06T00:57:24.337Z,100062.82
2024-01-06T00:59:55.373Z,100067.22
2024-01-06T01:02:25.696Z,100073.82
2024-01-06T01:04:56.111Z,100076.06
2024-01-06T01:07:26.753Z,100073.44
2024-01-06T01:09:57.763Z,100076.88
2024-01-06T01:12:36.625Z,100082.96
2024-01-06T01:14:59.262Z,100086.08
2024-01-06T01:17:30.036Z,100090.45
2024-01-06T01:20:01.056Z,100096.76
2024-01-06T01:22:31.713Z,100100.66
2024-01-06T01:25:02.694Z,100100.38
2024-01-06T01:27:33.352Z,100108.38
2024-01-06T01:30:03.994Z,100111.09
2024-01-06T01:32:34.438Z,100117.43
2024-01-06T01:35:05.191Z,100123.72
2024-01-06T01:37:36.035Z,100127.86
2024-01-06T01:40:06.581Z,100131.67
2024-01-06T01:42:36.805Z,100130.95
2024-01-06T01:45:07.801Z,100133.95
2024-01-06T01:47:37.638Z,100136.34
2024-01-06T01:50:08.369Z,100135.74
2024-01-06T01:52:38.597Z,100137.05
2024-01-06T01:55:09.032Z,100134.72
2024-01-06T01:57:39.326Z,100141.93
2024-01-06T02:00:10.083Z,100144.59
2024-01-06T02:02:40.433Z,100146.03
2024-01-06T02:05:10.995Z,100154.13
2024-01-06T02:07:41.566Z,100154.85
2024-01-06T02:10:12.418Z,100159.75
2024-01-06T02:12:43.333Z,100165.70
2024-01-06T02:15:14.316Z,100174.38
2024-01-06T02:17:44.711Z,100177.93
2024-01-06T02:20:14.955Z,100182.90
2024-01-06T02:22:44.880Z,100186.49
2024-01-06T02:25:15.853Z,100190.07
2024-01-06T02:27:46.657Z,100187.13
2024-01-06T02:30:17.305Z,100190.74
2024-01-06T02:32:47.114Z,100189.42
2024-01-06T02:35:17.122Z,100190.83
2024-01-06T02:37:47.618Z,100194.11
2024-01-06T02:40:18.184Z,100201.01
2024-01-06T02:42:48.795Z,100204.64
2024-01-06T02:45:19.696Z,100204.98
2024-01-06T02:47:50.540Z,100208.13
2024-01-06T02:50:21.116Z,100212.06
2024-01-06T02:52:50.970Z,100211.72
2024-01-06T02:55:20.991Z,100216.34
2024-01-06T02:57:51.966Z,100216.16
2024-01-06T03:00:22.507Z,100219.08
2024-01-06T03:02:52.404Z,100221.40
2024-01-06T03:05:22.467Z,100225.53
2024-01-06T03:07:53.314Z,100225.64
2024-01-06T03:10:24.192Z,100229.62
2024-01-06T03:12:55.180Z,100232.30
2024-01-06T03:15:25.626Z,100229.31
2024-01-06T03:17:55.767Z,100233.18
2024-01-06T03:20:26.206Z,100237.46
2024-01-06T03:22:57.076Z,100238.47
2024-01-06T03:25:27.521Z,100242.78
2024-01-06T03:27:57.634Z,100244.92
2024-01-06T03:30:27.846Z,100249.33
2024-01-06T03:32:58.631Z,100253.17
2024-01-06T03:35:29.434Z,100259.20
2024-01-06T03:37:59.934Z,100263.28
2024-01-06T03:40:29.943Z,100268.91
2024-01-06T03:42:59.961Z,100270.77
2024-01-06T03:45:30.929Z,100277.77
2024-01-06T03:48:02.043Z,100278.37
2024-01-06T03:50:32.608Z,100283.49
2024-01-06T03:53:03.127Z,100294.56
2024-01-06T03:55:33.576Z,100300.47
2024-01-06T03:58:03.974Z,100304.08
2024-01-06T04:00:34.638Z,100304.05
2024-01-06T04:03:04.650Z,100308.24
2024-01-06T04:05:35.408Z,100311.96
2024-01-06T04:08:05.969Z,100314.46
2024-01-06T04:10:36.446Z,100322.19
2024-01-06T04:13:07.305Z,100324.39
2024-01-06T04:15:38.397Z,100326.10
2024-01-06T04:18:09.293Z,100332.35
2024-01-06T04:20:39.773Z,100334.77
2024-01-06T04:23:10.503Z,100334.29
2024-01-06T04:25:40.398Z,100336.18
2024-01-06T04:28:10.671Z,100339.87
2024-01-06T04:30:41.409Z,100339.08
2024-01-06T04:33:11.435Z,100342.05
2024-01-06T04:35:41.714Z,100345.57
2024-01-06T04:38:12.267Z,100340.73
2024-01-06T04:40:42.907Z,100344.61
2024-01-06T04:43:13.622Z,100342.12
2024-01-06T04:45:43.936Z,100347.82
2024-01-06T04:48:14.547Z,100350.68
2024-01-06T04:50:44.798Z,100351.24
2024-01-06T04:53:14.964Z,100351.87
2024-01-06T04:55:45.543Z,100352.60
2024-01-06T04:58:15.565Z,100356.51
2024-01-06T05:00:45.946Z,100355.67
2024-01-06T05:03:16.117Z,100360.95
2024-01-06T05:05:46.799Z,100363.30
2024-01-06T05:08:16.988Z,100371.43
2024-01-06T05:10:47.052Z,100369.44
2024-01-06T05:13:17.402Z,100375.43
2024-01-06T05:15:48.130Z,100379.49
2024-01-06T05:18:18.717Z,100384.58
2024-01-06T05:20:49.353Z,100390.13
2024-01-06T05:23:19.707Z,100389.58
2024-01-06T05:25:50.280Z,100395.44
2024-01-06T05:28:20.270Z,100396.87
2024-01-06T05:30:51.057Z,100403.22
2024-01-06T05:33:21.372Z,100397.85
2024-01-06T05:35:51.859Z,100401.36
2024-01-06T05:38:22.107Z,100406.01
2024-01-06T05:40:52.121Z,100416.31
2024-01-06T05:43:22.478Z,100422.62
2024-01-06T05:45:53.478Z,100424.11
2024-01-06T05:48:24.270Z,100427.85
2024-01-06T05:50:54.957Z,100434.35
2024-01-06T05:53:25.265Z,100439.03
2024-01-06T05:55:55.715Z,100444.96
2024-01-06T05:58:26.451Z,100446.27
2024-01-06T06:00:56.826Z,100453.02
2024-01-06T06:03:27.144Z,100460.50
2024-01-06T06:05:57.755Z,100462.15
2024-01-06T06:08:28.002Z,100465.85
2024-01-06T06:10:58.685Z,100470.28
2024-01-06T06:13:28.900Z,100473.74
2024-01-06T06:15:59.703Z,100484.34
2024-01-06T06:18:30.577Z,100487.48
2024-01-06T06:21:00.730Z,100494.22
2024-01-06T06:23:31.640Z,100500.01
2024-01-06T06:26:01.645Z,100503.61
2024-01-06T06:28:32.005Z,100508.90
2024-01-06T06:31:03.107Z,100514.52
2024-01-06T06:33:33.240Z,100515.58
2024-01-06T06:36:03.165Z,100520.50
2024-01-06T06:38:33.142Z,100521.74
2024-01-06T06:41:03.793Z,100519.84
2024-01-06T06:43:34.345Z,100524.83
2024-01-06T06:46:04.871Z,100531.17
2024-01-06T06:48:35.118Z,100534.03
2024-01-06T06:51:05.722Z,100538.09
2024-01-06T06:53:36.024Z,100543.12
2024-01-06T06:56:06.157Z,100547.54
2024-01-06T06:58:36.406Z,100551.45
2024-01-06T07:01:07.204Z,100561.46
2024-01-06T07:03:37.744Z,100565.65
2024-01-06T07:06:07.848Z,100573.07
2024-01-06T07:08:38.249Z,100578.86
2024-01-06T07:11:08.614Z,100582.30
2024-01-06T07:13:39.394Z,100588.10
2024-01-06T07:16:17.906Z,100589.09
2024-01-06T07:18:40.182Z,100592.51
2024-01-06T07:21:10.154Z,100598.69
2024-01-06T07:23:41.059Z,100602.60
2024-01-06T07:26:11.694Z,100605.77
2024-01-06T07:28:41.696Z,100609.99
2024-01-06T07:31:12.080Z,100612.85
2024-01-06T07:33:42.431Z,100619.95
2024-01-06T07:36:12.744Z,100623.57
2024-01-06T07:38:42.723Z,100626.45
2024-01-06T07:41:12.813Z,100626.87
2024-01-06T07:43:43.336Z,100633.08
2024-01-06T07:46:13.661Z,100637.78
2024-01-06T07:48:44.364Z,100639.44
2024-01-06T07:51:14.995Z,100644.27
2024-01-06T07:53:44.931Z,100646.31
2024-01-06T07:56:15.593Z,100648.35
2024-01-06T07:58:45.636Z,100649.77
2024-01-06T08:01:15.803Z,100650.82
2024-01-06T08:03:46.388Z,100653.67
2024-01-06T08:06:16.962Z,100659.53
2024-01-06T08:08:47.307Z,100665.11
2024-01-06T08:11:17.635Z,100669.90
2024-01-06T08:13:47.761Z,100678.38
2024-01-06T08:16:18.024Z,100684.76
2024-01-06T08:18:48.165Z,100683.62
2024-01-06T08:21:18.442Z,100691.81
2024-01-06T08:23:48.895Z,100698.25
2024-01-06T08:26:18.988Z,100703.86
2024-01-06T08:28:48.897Z,100701.62
2024-01-06T08:31:19.396Z,100702.12
2024-01-06T08:33:50.096Z,100705.21
2024-01-06T08:36:19.933Z,100706.40
2024-01-06T08:38:50.610Z,100710.86
2024-01-06T08:41:21.165Z,100716.29
2024-01-06T08:43:51.886Z,100726.53
2024-01-06T08:46:21.847Z,100729.62
2024-01-06T08:48:52.014Z,100728.72
2024-01-06T08:51:22.632Z,100726.02
2024-01-06T08:53:53.127Z,100727.97
2024-01-06T08:56:23.391Z,100736.09
2024-01-06T08:58:53.414Z,100739.41
2024-01-06T09:01:24.304Z,100744.09
2024-01-06T09:03:55.042Z,100745.81
2024-01-06T09:06:25.112Z,100749.81
2024-01-06T09:08:55.497Z,100749.43
2024-01-06T09:11:25.201Z,100751.39
2024-01-06T09:13:55.571Z,100754.78
2024-01-06T09:16:26.487Z,100757.75
2024-01-06T09:18:57.313Z,100759.64
2024-01-06T09:21:27.498Z,100760.62
2024-01-06T09:23:57.658Z,100767.43
2024-01-06T09:26:27.912Z,100772.52
2024-01-06T09:28:58.417Z,100776.92
2024-01-06T09:31:28.765Z,100782.80
2024-01-06T09:33:59.375Z,100787.76
2024-01-06T09:36:29.635Z,100787.25
2024-01-06T09:38:59.566Z,100797.05
2024-01-06T09:41:29.873Z,100797.57
2024-01-06T09:44:00.391Z,100800.12
2024-01-06T09:46:30.955Z,100806.91
2024-01-06T09:49:01.599Z,100811.10
2024-01-06T09:51:31.914Z,100817.59
2024-01-06T09:54:02.562Z,100821.79
2024-01-06T09:56:32.951Z,100826.20
2024-01-06T09:59:03.891Z,100826.71
2024-01-06T10:01:34.065Z,100827.75
2024-01-06T10:04:04.239Z,100829.58
2024-01-06T10:06:34.708Z,100831.54
2024-01-06T10:09:05.377Z,100835.29
2024-01-06T10:11:35.303Z,100841.97
2024-01-06T10:14:05.639Z,100843.52
2024-01-06T10:16:36.476Z,100846.98
2024-01-06T10:19:06.796Z,100849.50
2024-01-06T10:21:37.396Z,100849.92
2024-01-06T10:24:07.940Z,100856.58
2024-01-06T10:26:38.164Z,100860.96
2024-01-06T10:29:08.964Z,100861.23
2024-01-06T10:31:40.098Z,100862.00
2024-01-06T10:34:10.101Z,100862.33
2024-01-06T10:36:40.915Z,100864.02
2024-01-06T10:39:11.505Z,100863.40
2024-01-06T10:41:42.196Z,100863.30
2024-01-06T10:44:12.650Z,100863.97
2024-01-06T10:46:42.776Z,100863.38
2024-01-06T10:49:12.966Z,100865.47
2024-01-06T10:51:43.089Z,100865.24
2024-01-06T10:54:13.575Z,100868.06
2024-01-06T10:56:44.160Z,100870.80
2024-01-06T10:59:14.238Z,100872.83
2024-01-06T11:01:45.229Z,100876.33
2024-01-06T11:04:15.697Z,100875.77
2024-01-06T11:06:46.340Z,100878.51
2024-01-06T11:09:16.960Z,100878.57
2024-01-06T11:11:47.253Z,100884.46
2024-01-06T11:14:17.862Z,100890.10
2024-01-06T11:16:48.738Z,100894.04
2024-01-06T11:19:18.939Z,100896.20
2024-01-06T11:21:49.716Z,100896.03
2024-01-06T11:24:19.649Z,100893.94
2024-01-06T11:26:49.985Z,100896.89
2024-01-06T11:29:20.540Z,100894.35
2024-01-06T11:31:51.475Z,100896.56
2024-01-06T11:34:22.172Z,100890.86
2024-01-06T11:36:52.310Z,100893.32
2024-01-06T11:39:22.683Z,100895.14
2024-01-06T11:41:52.682Z,100894.37
2024-01-06T11:44:23.371Z,100894.68
2024-01-06T11:46:53.648Z,100898.90
2024-01-06T11:49:24.429Z,100901.42
2024-01-06T11:51:54.631Z,100902.30
2024-01-06T11:54:25.003Z,100904.79
2024-01-06T11:56:54.977Z,100905.61
2024-01-06T11:59:25.148Z,100905.74
2024-01-06T12:01:55.179Z,100907.37
2024-01-06T12:04:25.318Z,100904.35
2024-01-06T12:06:56.079Z,100908.68
2024-01-06T12:09:26.086Z,100909.21
2024-01-06T12:11:56.109Z,100911.00
2024-01-06T12:14:26.509Z,100911.62
2024-01-06T12:16:56.772Z,100911.05
2024-01-06T12:19:27.630Z,100911.56
2024-01-06T12:21:57.708Z,100910.89
2024-01-06T12:24:27.972Z,100911.50
2024-01-06T12:26:58.299Z,100905.74
2024-01-06T12:29:28.450Z,100904.87
2024-01-06T12:31:58.695Z,100904.15
2024-01-06T12:34:29.252Z,100905.91
2024-01-06T12:36:59.998Z,100908.33
2024-01-06T12:39:30.388Z,100912.01
2024-01-06T12:42:01.124Z,100911.52
2024-01-06T12:44:31.009Z,100913.53
2024-01-06T12:47:01.663Z,100915.43
2024-01-06T12:49:39.379Z,100915.82
2024-01-06T12:52:07.884Z,100918.53
2024-01-06T12:54:33.385Z,100916.90
2024-01-06T12:57:04.173Z,100919.74
2024-01-06T12:59:34.411Z,100924.65
2024-01-06T13:02:04.747Z,100924.77
2024-01-06T13:04:35.516Z,100928.56
2024-01-06T13:07:06.333Z,100933.24
2024-01-06T13:09:36.660Z,100935.51
2024-01-06T13:12:06.635Z,100937.91
2024-01-06T13:14:37.454Z,100943.14
2024-01-06T13:17:08.146Z,100946.00
2024-01-06T13:19:38.884Z,100953.40
2024-01-06T13:22:09.332Z,100956.16
2024-01-06T13:24:39.374Z,100961.58
2024-01-06T13:27:10.147Z,100963.41
2024-01-06T13:29:40.201Z,100970.42
2024-01-06T13:32:10.416Z,100973.05
2024-01-06T13:34:41.164Z,100974.98
2024-01-06T13:37:11.571Z,100978.63
2024-01-06T13:39:42.004Z,100978.10
2024-01-06T13:42:12.474Z,100983.43
2024-01-06T13:44:43.024Z,100986.25
2024-01-06T13:47:13.131Z,100988.42
2024-01-06T13:49:44.261Z,100990.63
2024-01-06T13:52:14.576Z,100991.87
2024-01-06T13:54:45.348Z,100994.51
2024-01-06T13:57:16.078Z,100996.47
2024-01-06T13:59:46.696Z,101002.61
2024-01-06T14:02:17.304Z,101010.34
2024-01-06T14:04:48.164Z,101013.54
2024-01-06T14:07:19.102Z,101015.60
2024-01-06T14:09:49.824Z,101018.19
2024-01-06T14:12:20.655Z,101017.08
2024-01-06T14:14:51.155Z,101020.54
2024-01-06T14:17:22.237Z,101021.57
2024-01-06T14:19:52.911Z,101023.27
2024-01-06T14:22:23.194Z,101024.97
2024-01-06T14:24:53.252Z,101028.71
2024-01-06T14:27:23.789Z,101036.82
2024-01-06T14:29:53.955Z,101034.94
2024-01-06T14:32:24.606Z,101035.71
2024-01-06T14:34:55.377Z,101043.70
2024-01-06T14:37:25.548Z,101046.09
2024-01-06T14:39:55.770Z,101050.36
2024-01-06T14:42:25.971Z,101054.97
2024-01-06T14:44:56.561Z,101058.79
2024-01-06T14:47:27.269Z,101062.98
2024-01-06T14:49:57.668Z,101071.32
2024-01-06T14:52:27.329Z,101073.26
2024-01-06T14:54:57.862Z,101075.23
2024-01-06T14:57:27.873Z,101083.20
2024-01-06T14:59:58.321Z,101085.24
2024-01-06T15:02:28.449Z,101088.61
2024-01-06T15:04:58.925Z,101089.24
2024-01-06T15:07:29.200Z,101092.03
2024-01-06T15:10:03.142Z,101093.95
2024-01-06T15:12:29.827Z,101096.61
2024-01-06T15:15:00.392Z,101101.13
2024-01-06T15:17:30.632Z,101104.02
2024-01-06T15:20:01.210Z,101106.75
2024-01-06T15:22:31.307Z,101107.23
2024-01-06T15:25:02.224Z,101113.95
2024-01-06T15:27:32.475Z,101117.66
2024-01-06T15:30:02.560Z,101120.70
2024-01-06T15:32:33.376Z,101119.17
2024-01-06T15:35:03.819Z,101125.81
2024-01-06T15:37:34.281Z,101127.75
2024-01-06T15:40:04.386Z,101133.11
2024-01-06T15:42:34.536Z,101138.55
2024-01-06T15:45:05.241Z,101140.20
2024-01-06T15:47:35.698Z,101147.30
2024-01-06T15:50:05.775Z,101145.82
2024-01-06T15:52:36.201Z,101149.67
2024-01-06T15:55:06.488Z,101150.41
2024-01-06T15:57:36.898Z,101154.37
2024-01-06T16:00:07.533Z,101156.71
2024-01-06T16:02:37.868Z,101158.81
2024-01-06T16:05:08.203Z,101160.30
2024-01-06T16:07:38.232Z,101158.51
2024-01-06T16:10:08.495Z,101160.73
2024-01-06T16:12:39.018Z,101163.01
2024-01-06T16:15:09.692Z,101164.51
2024-01-06T16:17:40.071Z,101166.99
2024-01-06T16:20:10.189Z,101174.56
2024-01-06T16:22:40.745Z,101175.67
2024-01-06T16:25:11.590Z,101182.38
2024-01-06T16:27:42.107Z,101184.34
2024-01-06T16:30:12.743Z,101184.69
2024-01-06T16:32:43.339Z,101190.78
2024-01-06T16:35:13.761Z,101195.04
2024-01-06T16:37:43.905Z,101202.51
2024-01-06T16:40:14.168Z,101206.01
2024-01-06T16:42:44.220Z,101208.83
2024-01-06T16:45:14.757Z,101208.95
2024-01-06T16:47:44.966Z,101212.13
2024-01-06T16:50:15.708Z,101214.64
2024-01-06T16:52:46.407Z,101216.12
2024-01-06T16:55:16.731Z,101220.19
2024-01-06T16:57:47.368Z,101220.00
2024-01-06T17:00:17.587Z,101219.31
2024-01-06T17:02:48.010Z,101218.76
2024-01-06T17:05:18.342Z,101225.86
2024-01-06T17:07:48.579Z,101229.32
2024-01-06T17:10:19.313Z,101234.74
2024-01-06T17:12:50.030Z,101234.06
2024-01-06T17:15:19.994Z,101238.50
2024-01-06T17:17:50.812Z,101240.75
2024-01-06T17:20:21.117Z,101244.01
2024-01-06T17:22:51.778Z,101245.30
2024-01-06T17:25:22.005Z,101246.72
2024-01-06T17:27:52.805Z,101248.16
2024-01-06T17:30:23.217Z,101252.63
2024-01-06T17:32:55.777Z,101257.04
2024-01-06T17:35:23.792Z,101254.40
2024-01-06T17:37:54.080Z,101256.28
2024-01-06T17:40:24.840Z,101257.82
2024-01-06T17:42:55.154Z,101261.47
2024-01-06T17:45:25.960Z,101263.41
2024-01-06T17:47:56.312Z,101263.73
2024-01-06T17:50:26.296Z,101266.06
2024-01-06T17:52:56.878Z,101269.15
2024-01-06T17:55:27.201Z,101271.15
2024-01-06T17:57:57.827Z,101271.54
2024-01-06T18:00:28.389Z,101275.23
2024-01-06T18:02:58.567Z,101276.47
2024-01-06T18:05:29.233Z,101283.85
2024-01-06T18:07:59.658Z,101286.12
2024-01-06T18:10:29.827Z,101287.04
2024-01-06T18:12:59.965Z,101291.80
2024-01-06T18:15:33.802Z,101292.18
2024-01-06T18:18:00.710Z,101294.67
2024-01-06T18:20:31.204Z,101294.79
2024-01-06T18:23:01.222Z,101297.34
2024-01-06T18:25:31.249Z,101301.15
2024-01-06T18:28:01.816Z,101301.58
2024-01-06T18:30:32.110Z,101303.36
2024-01-06T18:33:02.805Z,101305.54
2024-01-06T18:35:32.924Z,101307.80
2024-01-06T18:38:03.447Z,101309.22
2024-01-06T18:40:34.099Z,101310.29
2024-01-06T18:43:04.770Z,101315.68
2024-01-06T18:45:35.554Z,101319.22
2024-01-06T18:48:05.609Z,101320.14
2024-01-06T18:50:35.623Z,101324.14
2024-01-06T18:53:05.945Z,101324.79
2024-01-06T18:55:36.673Z,101330.76
2024-01-06T18:58:07.201Z,101327.74
2024-01-06T19:00:38.116Z,101330.41
2024-01-06T19:03:08.103Z,101334.42
2024-01-06T19:05:38.269Z,101337.42
2024-01-06T19:08:08.606Z,101342.61
2024-01-06T19:10:39.203Z,101349.21
2024-01-06T19:13:10.018Z,101349.95
2024-01-06T19:15:40.238Z,101352.82
2024-01-06T19:18:10.921Z,101350.86
2024-01-06T19:20:41.252Z,101355.31
2024-01-06T19:23:11.531Z,101357.37
2024-01-06T19:25:41.851Z,101359.06
2024-01-06T19:28:11.877Z,101356.89
2024-01-06T19:30:42.107Z,101357.82
2024-01-06T19:33:12.271Z,101363.61
2024-01-06T19:35:42.635Z,101363.54
2024-01-06T19:38:12.983Z,101367.43
2024-01-06T19:40:43.519Z,101368.71
2024-01-06T19:43:13.745Z,101377.14
2024-01-06T19:45:43.719Z,101375.03
2024-01-06T19:48:14.425Z,101380.34
2024-01-06T19:50:44.625Z,101384.69
2024-01-06T19:53:15.391Z,101386.58
2024-01-06T19:55:45.664Z,101390.03
2024-01-06T19:58:16.374Z,101394.22
2024-01-06T20:00:46.867Z,101393.65
2024-01-06T20:03:17.305Z,101393.15
2024-01-06T20:05:48.083Z,101392.67
2024-01-06T20:08:18.707Z,101398.07
2024-01-06T20:10:49.472Z,101403.52
2024-01-06T20:13:20.091Z,101406.46
2024-01-06T20:15:50.219Z,101404.76
2024-01-06T20:18:20.935Z,101408.61
2024-01-06T20:20:51.066Z,101410.58
2024-01-06T20:23:21.187Z,101412.26
2024-01-06T20:25:52.157Z,101415.28
2024-01-06T20:28:23.082Z,101418.29
2024-01-06T20:30:54.044Z,101420.96
2024-01-06T20:33:24.602Z,101425.08
2024-01-06T20:35:54.844Z,101428.09
2024-01-06T20:38:25.345Z,101435.22
2024-01-06T20:40:55.605Z,101435.34
2024-01-06T20:43:26.143Z,101434.94
2024-01-06T20:45:56.801Z,101435.02
2024-01-06T20:48:26.865Z,101439.97
2024-01-06T20:50:57.120Z,101442.57
2024-01-06T20:53:27.153Z,101442.37
2024-01-06T20:55:57.643Z,101446.16
2024-01-06T20:58:28.196Z,101445.33
2024-01-06T21:00:58.576Z,101445.60
2024-01-06T21:03:29.290Z,101450.64
2024-01-06T21:05:59.965Z,101450.13
2024-01-06T21:08:30.085Z,101453.03
2024-01-06T21:11:00.341Z,101454.20
2024-01-06T21:13:31.150Z,101455.94
2024-01-06T21:16:01.511Z,101460.50
2024-01-06T21:18:32.212Z,101457.58
2024-01-06T21:21:02.626Z,101461.17
2024-01-06T21:23:40.405Z,101461.02
2024-01-06T21:26:03.312Z,101463.73
2024-01-06T21:28:33.712Z,101460.07
2024-01-06T21:31:04.244Z,101465.86
2024-01-06T21:33:34.537Z,101465.98
2024-01-06T21:36:04.700Z,101466.54
2024-01-06T21:38:35.423Z,101469.38
2024-01-06T21:41:05.761Z,101473.19
2024-01-06T21:43:36.494Z,101473.94
2024-01-06T21:46:07.123Z,101471.68
2024-01-06T21:48:37.565Z,101474.72
2024-01-06T21:51:07.993Z,101478.12
2024-01-06T21:53:38.367Z,101478.14
2024-01-06T21:56:09.003Z,101478.74
2024-01-06T21:58:39.705Z,101482.69
2024-01-06T22:01:09.993Z,101484.49
2024-01-06T22:03:40.492Z,101486.35
2024-01-06T22:06:11.259Z,101486.26
2024-01-06T22:08:41.435Z,101491.87
2024-01-06T22:11:11.820Z,101494.96
2024-01-06T22:13:42.328Z,101496.17
2024-01-06T22:16:13.031Z,101498.31
2024-01-06T22:18:43.404Z,101499.27
2024-01-06T22:21:14.083Z,101504.20
2024-01-06T22:23:44.402Z,101509.61
2024-01-06T22:26:14.802Z,101516.37
2024-01-06T22:28:44.775Z,101517.11
2024-01-06T22:31:15.456Z,101520.54
2024-01-06T22:33:45.525Z,101522.04
2024-01-06T22:36:15.548Z,101521.00
2024-01-06T22:38:53.079Z,101526.76
2024-01-06T22:41:16.415Z,101531.77
2024-01-06T22:43:47.043Z,101531.83
2024-01-06T22:46:17.816Z,101532.78
2024-01-06T22:48:48.126Z,101537.67
2024-01-06T22:51:18.177Z,101548.26
2024-01-06T22:53:48.250Z,101549.51
2024-01-06T22:56:18.625Z,101550.14
2024-01-06T22:58:48.751Z,101555.24
2024-01-06T23:01:19.237Z,101559.51
2024-01-06T23:03:49.669Z,101562.30
2024-01-06T23:06:20.002Z,101564.15
2024-01-06T23:08:50.046Z,101566.10
2024-01-06T23:11:20.097Z,101566.38
2024-01-06T23:13:50.235Z,101567.75
2024-01-06T23:16:20.938Z,101569.63
2024-01-06T23:18:51.038Z,101570.44
2024-01-06T23:21:21.650Z,101576.29
2024-01-06T23:23:52.031Z,101576.71
2024-01-06T23:26:22.607Z,101580.82
2024-01-06T23:28:53.106Z,101578.37
2024-01-06T23:31:23.270Z,101585.27
2024-01-06T23:33:53.795Z,101586.31
2024-01-06T23:36:24.107Z,101586.56
2024-01-06T23:38:54.198Z,101591.12
2024-01-06T23:41:24.279Z,101590.94
2024-01-06T23:43:55.052Z,101590.05
2024-01-06T23:46:25.285Z,101590.62
2024-01-06T23:48:56.027Z,101595.36
2024-01-06T23:51:26.116Z,101599.89
2024-01-06T23:53:56.133Z,101602.62
2024-01-06T23:56:26.520Z,101603.77
2024-01-06T23:58:56.883Z,101606.19
